Time;durP1;ratioP1;P1;durP2;ratioP2;P2;SDS_P1;SDS_P2;PMS_P1;PMS_P2;Temp;Humidity;BMP_temperature;BMP_pressure;BME280_temperature;BME280_humidity;BME280_pressure;Samples;Min_cycle;Max_cycle;Signal;HPM_P1;HPM_P2
2021/07/06 00:00:43;;;;;;;4.40;2.70;;;;;;;;;;5081526;28;20469;-58
2021/07/06 00:03:10;;;;;;;6.70;2.63;;;;;;;;;;5115419;28;20616;-57
2021/07/06 00:05:42;;;;;;;3.50;2.60;;;;;;;;;;5101746;28;20468;-57
2021/07/06 00:08:10;;;;;;;3.77;1.97;;;;;;;;;;5103046;28;20447;-57
2021/07/06 00:10:39;;;;;;;2.93;1.47;;;;;;;;;;5108793;28;20458;-55
2021/07/06 00:13:08;;;;;;;2.80;1.67;;;;;;;;;;5115321;28;20466;-55
2021/07/06 00:15:35;;;;;;;5.70;2.13;;;;;;;;;;5095678;28;20441;-56
2021/07/06 00:18:13;;;;;;;2.53;1.30;;;;;;;;;;5094943;28;20495;-58
2021/07/06 00:20:40;;;;;;;9.73;4.87;;;;;;;;;;5095204;28;20482;-56
2021/07/06 00:23:08;;;;;;;5.13;1.90;;;;;;;;;;5111754;28;20520;-60
2021/07/06 00:25:39;;;;;;;7.83;1.80;;;;;;;;;;5096594;28;20526;-54
2021/07/06 00:28:08;;;;;;;27.70;16.07;;;;;;;;;;5107804;28;20510;-58
2021/07/06 00:30:35;;;;;;;5.73;4.03;;;;;;;;;;5095142;28;20476;-58
2021/07/06 00:36:07;;;;;;;30.43;22.10;;;;;;;;;;5100126;28;20482;-55
2021/07/06 00:38:34;;;;;;;14.33;9.20;;;;;;;;;;5100363;28;20444;-55
2021/07/06 00:41:03;;;;;;;12.87;9.10;;;;;;;;;;5111440;28;20550;-57
2021/07/06 00:43:33;;;;;;;25.23;16.60;;;;;;;;;;5105804;28;20630;-55
2021/07/06 00:46:02;;;;;;;6.90;1.50;;;;;;;;;;5102193;28;20491;-54
2021/07/06 00:48:30;;;;;;;20.60;12.20;;;;;;;;;;5110798;28;20510;-56
2021/07/06 00:50:57;;;;;;;30.50;15.37;;;;;;;;;;5104652;28;20447;-55
2021/07/06 00:53:25;;;;;;;4.83;1.60;;;;;;;;;;5118097;28;20447;-56
2021/07/06 00:55:55;;;;;;;17.67;10.47;;;;;;;;;;5114401;28;20486;-57
2021/07/06 00:58:40;;;;;;;19.97;13.40;;;;;;;;;;5105564;28;20487;-55
2021/07/06 01:01:08;;;;;;;26.37;16.27;;;;;;;;;;5097719;28;20452;-54
2021/07/06 01:03:35;;;;;;;23.73;15.73;;;;;;;;;;5103453;28;20466;-57
2021/07/06 01:06:07;;;;;;;4.43;2.00;;;;;;;;;;5113006;28;20447;-55
2021/07/06 01:08:34;;;;;;;24.77;11.77;;;;;;;;;;5118036;28;20458;-56
2021/07/06 01:11:02;;;;;;;18.80;13.40;;;;;;;;;;5108293;28;20442;-57
2021/07/06 01:13:33;;;;;;;57.93;45.37;;;;;;;;;;5122736;28;20432;-57
2021/07/06 01:16:02;;;;;;;4.50;1.77;;;;;;;;;;5105482;28;20452;-54
2021/07/06 01:18:30;;;;;;;24.10;17.17;;;;;;;;;;5097679;28;20622;-58
2021/07/06 01:21:06;;;;;;;40.33;30.23;;;;;;;;;;5097625;28;20455;-55
2021/07/06 01:23:35;;;;;;;32.30;22.40;;;;;;;;;;5097409;28;20451;-56
2021/07/06 01:26:04;;;;;;;27.50;18.77;;;;;;;;;;5106596;28;20459;-54
2021/07/06 01:28:35;;;;;;;16.50;6.07;;;;;;;;;;5109001;28;20436;-55
2021/07/06 01:31:02;;;;;;;20.57;11.50;;;;;;;;;;5095042;28;20453;-52
2021/07/06 01:33:31;;;;;;;5.90;3.70;;;;;;;;;;5095143;28;20471;-55
2021/07/06 01:36:01;;;;;;;12.23;7.03;;;;;;;;;;5113317;28;20482;-54
2021/07/06 01:38:28;;;;;;;18.33;13.37;;;;;;;;;;5131343;28;20498;-51
2021/07/06 01:41:13;;;;;;;6.47;3.43;;;;;;;;;;5104618;28;20464;-55
2021/07/06 01:43:41;;;;;;;12.63;10.90;;;;;;;;;;5095281;28;20455;-57
2021/07/06 01:46:08;;;;;;;7.60;5.87;;;;;;;;;;5094872;28;20451;-58
2021/07/06 01:48:37;;;;;;;7.70;4.03;;;;;;;;;;5109812;28;20469;-56
2021/07/06 01:51:04;;;;;;;9.03;6.33;;;;;;;;;;5095669;28;20457;-57
2021/07/06 01:53:31;;;;;;;8.33;4.20;;;;;;;;;;5098354;28;20498;-56
2021/07/06 01:55:59;;;;;;;8.17;4.93;;;;;;;;;;5105995;28;20509;-53
2021/07/06 01:58:31;;;;;;;5.43;3.90;;;;;;;;;;5095196;28;20462;-55
2021/07/06 02:01:00;;;;;;;9.40;5.70;;;;;;;;;;5106286;28;20479;-56
2021/07/06 02:03:33;;;;;;;5.60;3.23;;;;;;;;;;5115677;28;20527;-54
2021/07/06 02:06:01;;;;;;;8.63;4.63;;;;;;;;;;5115662;28;20843;-53
2021/07/06 02:08:29;;;;;;;13.73;5.40;;;;;;;;;;5115518;28;20451;-55
2021/07/06 02:11:04;;;;;;;5.87;4.87;;;;;;;;;;5115384;28;20459;-53
2021/07/06 02:13:32;;;;;;;11.00;8.97;;;;;;;;;;5103525;28;20468;-55
2021/07/06 02:16:00;;;;;;;9.80;5.50;;;;;;;;;;5094754;28;20421;-56
2021/07/06 02:18:33;;;;;;;6.63;3.97;;;;;;;;;;5094893;28;20598;-53
2021/07/06 02:21:01;;;;;;;7.70;4.60;;;;;;;;;;5094233;28;20467;-57
2021/07/06 02:23:29;;;;;;;3.30;2.10;;;;;;;;;;5094308;28;20444;-56
2021/07/06 02:25:58;;;;;;;6.37;3.20;;;;;;;;;;5095062;28;20471;-56
2021/07/06 02:28:26;;;;;;;4.50;3.40;;;;;;;;;;5094650;28;20448;-57
2021/07/06 02:30:54;;;;;;;8.40;5.47;;;;;;;;;;5094342;28;20660;-54
2021/07/06 02:33:51;;;;;;;10.40;6.40;;;;;;;;;;5094078;28;20456;-57
2021/07/06 02:36:18;;;;;;;9.37;5.93;;;;;;;;;;5093937;28;20507;-53
2021/07/06 02:38:46;;;;;;;8.67;5.40;;;;;;;;;;5093844;28;20468;-57
2021/07/06 02:41:19;;;;;;;10.80;5.77;;;;;;;;;;5108946;28;20451;-54
2021/07/06 02:44:00;;;;;;;8.90;5.50;;;;;;;;;;5114733;28;20447;-55
2021/07/06 02:46:49;;;;;;;8.50;4.50;;;;;;;;;;5113363;28;20490;-56
2021/07/06 02:49:18;;;;;;;9.30;5.87;;;;;;;;;;5094205;28;20451;-56
2021/07/06 02:51:46;;;;;;;17.60;10.90;;;;;;;;;;5094034;28;20456;-54
2021/07/06 02:54:20;;;;;;;24.27;14.87;;;;;;;;;;5093854;28;20460;-53
2021/07/06 02:56:47;;;;;;;22.47;14.30;;;;;;;;;;5106244;28;20447;-54
2021/07/06 02:59:15;;;;;;;9.97;5.27;;;;;;;;;;5093668;28;20476;-57
2021/07/06 03:01:59;;;;;;;5.40;2.83;;;;;;;;;;5110735;28;20443;-57
2021/07/06 03:04:28;;;;;;;3.43;1.93;;;;;;;;;;5113978;28;20455;-54
2021/07/06 03:06:59;;;;;;;4.50;1.47;;;;;;;;;;5114481;28;20518;-58
2021/07/06 03:09:38;;;;;;;3.57;1.70;;;;;;;;;;5114442;28;20455;-52
2021/07/06 03:12:07;;;;;;;2.40;1.03;;;;;;;;;;5113827;28;20520;-56
2021/07/06 03:14:34;;;;;;;4.97;1.60;;;;;;;;;;5114049;28;20754;-57
2021/07/06 03:17:01;;;;;;;3.70;1.70;;;;;;;;;;5113985;28;20470;-56
2021/07/06 03:19:30;;;;;;;3.17;1.30;;;;;;;;;;5113993;28;20451;-57
2021/07/06 03:21:58;;;;;;;2.40;1.40;;;;;;;;;;5093455;28;20479;-56
2021/07/06 03:24:25;;;;;;;2.70;1.30;;;;;;;;;;5093477;28;20452;-52
2021/07/06 03:26:52;;;;;;;6.13;1.57;;;;;;;;;;5093452;28;20460;-58
2021/07/06 03:29:26;;;;;;;3.47;1.50;;;;;;;;;;5093082;28;20482;-54
2021/07/06 03:31:53;;;;;;;4.33;2.13;;;;;;;;;;5093714;28;20439;-55
2021/07/06 03:34:21;;;;;;;2.30;1.40;;;;;;;;;;5093819;28;20452;-56
2021/07/06 03:37:07;;;;;;;6.23;1.70;;;;;;;;;;5109563;28;20474;-56
2021/07/06 03:39:35;;;;;;;4.40;1.80;;;;;;;;;;5113451;28;20479;-53
2021/07/06 03:42:06;;;;;;;3.93;1.80;;;;;;;;;;5113689;28;20458;-53
2021/07/06 03:44:34;;;;;;;7.00;1.47;;;;;;;;;;5097693;28;20443;-59
2021/07/06 03:47:02;;;;;;;3.87;1.83;;;;;;;;;;5114684;28;20451;-56
2021/07/06 03:49:29;;;;;;;2.90;1.50;;;;;;;;;;5098815;28;20447;-57
2021/07/06 03:52:33;;;;;;;5.13;2.10;;;;;;;;;;5114664;28;20423;-55
2021/07/06 03:55:01;;;;;;;7.53;1.90;;;;;;;;;;5106949;28;20463;-57
2021/07/06 03:57:29;;;;;;;3.70;1.50;;;;;;;;;;5095594;28;20455;-53
2021/07/06 04:00:03;;;;;;;3.10;1.47;;;;;;;;;;5113982;28;20503;-56
2021/07/06 04:02:30;;;;;;;4.00;1.30;;;;;;;;;;5114226;28;20451;-54
2021/07/06 04:04:58;;;;;;;2.90;1.60;;;;;;;;;;5113980;28;20483;-52
2021/07/06 04:07:48;;;;;;;5.50;1.70;;;;;;;;;;5099300;28;20479;-55
2021/07/06 04:10:22;;;;;;;4.07;1.80;;;;;;;;;;5107832;28;20464;-56
2021/07/06 04:12:50;;;;;;;5.83;2.23;;;;;;;;;;5114017;28;20453;-54
2021/07/06 04:15:20;;;;;;;4.73;2.13;;;;;;;;;;5103315;28;20431;-54
2021/07/06 04:17:54;;;;;;;3.30;1.60;;;;;;;;;;5108992;28;20538;-54
2021/07/06 04:20:23;;;;;;;3.90;1.23;;;;;;;;;;5097738;28;20473;-57
2021/07/06 04:23:00;;;;;;;2.83;1.67;;;;;;;;;;5097136;28;20728;-54
2021/07/06 04:25:40;;;;;;;4.50;1.67;;;;;;;;;;5097647;28;20451;-53
2021/07/06 04:28:08;;;;;;;5.93;2.07;;;;;;;;;;5097477;28;20483;-55
2021/07/06 04:30:37;;;;;;;15.23;2.33;;;;;;;;;;5096461;28;20483;-57
2021/07/06 04:33:04;;;;;;;6.67;2.40;;;;;;;;;;5097332;28;20455;-59
2021/07/06 04:35:34;;;;;;;4.37;2.57;;;;;;;;;;5096566;28;20471;-57
2021/07/06 04:38:01;;;;;;;5.00;1.50;;;;;;;;;;5096304;28;20570;-56
2021/07/06 04:40:36;;;;;;;5.60;1.70;;;;;;;;;;5096700;28;20432;-54
2021/07/06 04:43:05;;;;;;;5.20;1.83;;;;;;;;;;5097007;28;20455;-53
2021/07/06 04:45:33;;;;;;;6.47;2.60;;;;;;;;;;5101434;28;20468;-54
2021/07/06 04:48:07;;;;;;;3.63;1.73;;;;;;;;;;5096647;28;20479;-55
2021/07/06 04:50:36;;;;;;;3.07;1.93;;;;;;;;;;5115091;28;20496;-55
2021/07/06 04:53:06;;;;;;;5.73;2.20;;;;;;;;;;5116506;28;20522;-54
2021/07/06 04:55:38;;;;;;;7.23;2.30;;;;;;;;;;5116823;28;20420;-54
2021/07/06 04:58:05;;;;;;;8.63;2.23;;;;;;;;;;5102750;28;20476;-54
2021/07/06 05:00:33;;;;;;;4.33;2.57;;;;;;;;;;5096418;28;20538;-54
2021/07/06 05:03:20;;;;;;;5.43;2.60;;;;;;;;;;5113251;28;20474;-55
2021/07/06 05:05:47;;;;;;;8.33;3.70;;;;;;;;;;5115504;28;20470;-56
2021/07/06 05:08:15;;;;;;;2.90;1.50;;;;;;;;;;5096942;28;20515;-53
2021/07/06 05:10:43;;;;;;;4.13;2.47;;;;;;;;;;5096370;28;20424;-59
2021/07/06 05:13:13;;;;;;;4.23;1.93;;;;;;;;;;5096581;28;20456;-58
2021/07/06 05:15:45;;;;;;;8.10;2.57;;;;;;;;;;5096474;28;20444;-56
2021/07/06 05:18:13;;;;;;;5.10;2.53;;;;;;;;;;5096141;28;20484;-56
2021/07/06 05:20:41;;;;;;;8.87;2.90;;;;;;;;;;5095221;28;20456;-53
2021/07/06 05:23:33;;;;;;;3.47;1.80;;;;;;;;;;5095366;28;20789;-57
2021/07/06 05:28:48;;;;;;;5.83;2.10;;;;;;;;;;5114220;28;20461;-55
2021/07/06 05:31:17;;;;;;;5.30;2.30;;;;;;;;;;5113330;28;20459;-52
2021/07/06 05:33:48;;;;;;;3.97;2.27;;;;;;;;;;5114758;28;20473;-55
2021/07/06 05:36:41;;;;;;;4.40;2.90;;;;;;;;;;5116181;28;20439;-56
2021/07/06 05:39:11;;;;;;;4.37;2.90;;;;;;;;;;5113524;28;20534;-57
2021/07/06 05:41:41;;;;;;;3.30;2.23;;;;;;;;;;5106260;28;20463;-55
2021/07/06 05:44:46;;;;;;;5.63;2.03;;;;;;;;;;5115276;28;20455;-57
2021/07/06 05:47:14;;;;;;;8.30;3.57;;;;;;;;;;5116313;28;20465;-55
2021/07/06 05:50:04;;;;;;;8.13;2.80;;;;;;;;;;5115725;28;20432;-55
2021/07/06 05:52:37;;;;;;;7.90;3.27;;;;;;;;;;5106770;28;20515;-55
2021/07/06 05:55:25;;;;;;;6.77;2.60;;;;;;;;;;5114649;28;20444;-58
2021/07/06 05:57:56;;;;;;;5.47;2.80;;;;;;;;;;5109821;28;20443;-59
2021/07/06 06:00:28;;;;;;;7.90;2.90;;;;;;;;;;5098421;28;20516;-51
2021/07/06 06:02:55;;;;;;;7.40;3.50;;;;;;;;;;5113074;28;20553;-53
2021/07/06 06:05:36;;;;;;;5.97;3.10;;;;;;;;;;5127764;28;20480;-55
2021/07/06 06:08:04;;;;;;;7.73;2.70;;;;;;;;;;5119638;28;20521;-52
2021/07/06 06:10:37;;;;;;;6.80;3.40;;;;;;;;;;5114902;28;20526;-55
2021/07/06 06:13:33;;;;;;;7.23;2.87;;;;;;;;;;5098129;28;20468;-55
2021/07/06 06:16:04;;;;;;;10.63;3.33;;;;;;;;;;5094980;28;20498;-54
2021/07/06 06:18:32;;;;;;;5.50;3.10;;;;;;;;;;5094840;28;20512;-57
2021/07/06 06:21:24;;;;;;;8.43;3.67;;;;;;;;;;5105978;28;20482;-57
2021/07/06 06:23:52;;;;;;;6.90;2.83;;;;;;;;;;5114328;28;20538;-53
2021/07/06 06:26:20;;;;;;;5.77;2.80;;;;;;;;;;5114668;28;20490;-50
2021/07/06 06:28:51;;;;;;;6.87;3.20;;;;;;;;;;5100109;28;20456;-57
2021/07/06 06:31:21;;;;;;;3.40;2.50;;;;;;;;;;5105264;28;20461;-56
2021/07/06 06:33:48;;;;;;;4.70;2.43;;;;;;;;;;5103755;28;20474;-56
2021/07/06 06:36:23;;;;;;;5.83;3.23;;;;;;;;;;5112499;28;20415;-56
2021/07/06 06:38:54;;;;;;;5.80;2.67;;;;;;;;;;5104700;28;20509;-54
2021/07/06 06:41:22;;;;;;;4.13;2.43;;;;;;;;;;5113457;28;20455;-56
2021/07/06 06:44:06;;;;;;;5.10;3.43;;;;;;;;;;5115004;28;20447;-56
2021/07/06 06:46:36;;;;;;;4.80;2.90;;;;;;;;;;5094448;28;20804;-55
2021/07/06 06:49:05;;;;;;;6.00;3.13;;;;;;;;;;5093224;28;20547;-54
2021/07/06 06:51:37;;;;;;;6.80;3.07;;;;;;;;;;5110526;28;20494;-55
2021/07/06 06:54:06;;;;;;;4.20;2.33;;;;;;;;;;5105354;28;20470;-56
2021/07/06 06:56:41;;;;;;;5.97;3.30;;;;;;;;;;5111193;28;20460;-61
2021/07/06 06:59:10;;;;;;;4.90;2.67;;;;;;;;;;5092922;28;20480;-52
2021/07/06 07:01:38;;;;;;;6.10;2.70;;;;;;;;;;5109994;28;20455;-58
2021/07/06 07:04:06;;;;;;;8.43;3.13;;;;;;;;;;5112929;28;20486;-57
2021/07/06 07:06:34;;;;;;;4.47;2.63;;;;;;;;;;5113187;28;20469;-54
2021/07/06 07:09:03;;;;;;;8.73;2.70;;;;;;;;;;5092302;28;20448;-53
2021/07/06 07:11:31;;;;;;;4.73;2.50;;;;;;;;;;5104111;28;20477;-53
2021/07/06 07:13:59;;;;;;;4.43;2.10;;;;;;;;;;5110742;28;20474;-55
2021/07/06 07:16:35;;;;;;;6.23;3.07;;;;;;;;;;5111515;28;20492;-57
2021/07/06 07:19:17;;;;;;;3.70;2.53;;;;;;;;;;5105005;28;20555;-57
2021/07/06 07:21:44;;;;;;;6.13;3.00;;;;;;;;;;5098074;28;20701;-56
2021/07/06 07:24:12;;;;;;;8.03;3.03;;;;;;;;;;5103142;28;20435;-54
2021/07/06 07:26:39;;;;;;;4.07;2.10;;;;;;;;;;5113946;28;20451;-55
2021/07/06 07:29:07;;;;;;;4.57;2.33;;;;;;;;;;5112345;28;20447;-58
2021/07/06 07:31:35;;;;;;;5.50;2.27;;;;;;;;;;5095577;28;20494;-52
2021/07/06 07:34:03;;;;;;;4.10;2.20;;;;;;;;;;5109852;28;20431;-58
2021/07/06 07:36:31;;;;;;;6.37;3.10;;;;;;;;;;5100184;28;20524;-59
2021/07/06 07:39:02;;;;;;;5.37;2.40;;;;;;;;;;5096371;28;20563;-56
2021/07/06 07:41:29;;;;;;;4.77;2.37;;;;;;;;;;5113204;28;20442;-55
2021/07/06 07:43:57;;;;;;;3.47;2.47;;;;;;;;;;5113295;28;20443;-55
2021/07/06 07:46:31;;;;;;;3.73;2.30;;;;;;;;;;5113448;28;20454;-54
2021/07/06 07:49:05;;;;;;;3.93;2.63;;;;;;;;;;5114688;28;20451;-58
2021/07/06 07:51:56;;;;;;;3.93;1.87;;;;;;;;;;5118198;28;20462;-56
2021/07/06 07:54:54;;;;;;;6.80;2.83;;;;;;;;;;5097022;28;20483;-57
2021/07/06 07:57:26;;;;;;;4.60;2.40;;;;;;;;;;5113109;28;20493;-54
2021/07/06 07:59:53;;;;;;;5.07;2.13;;;;;;;;;;5118614;28;20478;-56
2021/07/06 08:02:33;;;;;;;4.13;2.50;;;;;;;;;;5117915;28;20862;-57
2021/07/06 08:05:01;;;;;;;7.60;2.43;;;;;;;;;;5116030;28;20490;-57
2021/07/06 08:07:30;;;;;;;4.40;2.80;;;;;;;;;;5117234;28;20519;-58
2021/07/06 08:09:57;;;;;;;5.33;2.30;;;;;;;;;;5117559;28;20455;-55
2021/07/06 08:12:26;;;;;;;5.77;2.10;;;;;;;;;;5117210;28;20450;-57
2021/07/06 08:15:00;;;;;;;4.63;2.77;;;;;;;;;;5119283;28;20411;-56
2021/07/06 08:17:51;;;;;;;5.53;2.40;;;;;;;;;;5117435;28;20459;-56
2021/07/06 08:20:18;;;;;;;5.40;2.30;;;;;;;;;;5117438;28;20546;-57
2021/07/06 08:22:47;;;;;;;6.93;2.67;;;;;;;;;;5117213;28;20488;-58
2021/07/06 08:25:51;;;;;;;4.80;2.73;;;;;;;;;;5111253;28;20478;-54
2021/07/06 08:28:22;;;;;;;4.13;2.10;;;;;;;;;;5115625;28;20473;-57
2021/07/06 08:30:49;;;;;;;7.83;2.80;;;;;;;;;;5118440;28;20511;-56
2021/07/06 08:33:18;;;;;;;3.83;2.07;;;;;;;;;;5103316;28;20443;-53
2021/07/06 08:35:45;;;;;;;3.10;2.20;;;;;;;;;;5111663;28;20486;-53
2021/07/06 08:38:15;;;;;;;3.43;2.03;;;;;;;;;;5096960;28;20444;-57
2021/07/06 08:41:20;;;;;;;3.97;2.07;;;;;;;;;;5112440;28;20491;-57
2021/07/06 08:43:58;;;;;;;2.90;1.90;;;;;;;;;;5095949;28;20460;-57
2021/07/06 08:46:57;;;;;;;5.30;2.50;;;;;;;;;;5096127;28;20459;-57
2021/07/06 08:49:24;;;;;;;3.73;2.50;;;;;;;;;;5096635;28;20487;-56
2021/07/06 08:51:52;;;;;;;3.10;2.10;;;;;;;;;;5095747;28;20474;-56
2021/07/06 08:54:21;;;;;;;4.73;2.70;;;;;;;;;;5096381;28;20835;-57
2021/07/06 08:56:50;;;;;;;7.17;2.50;;;;;;;;;;5106201;28;20472;-58
2021/07/06 08:59:19;;;;;;;4.63;3.13;;;;;;;;;;5116683;28;20491;-56
2021/07/06 09:02:09;;;;;;;6.20;3.60;;;;;;;;;;5104341;28;20460;-56
2021/07/06 09:04:45;;;;;;;3.23;2.10;;;;;;;;;;5096720;28;20476;-54
2021/07/06 09:07:12;;;;;;;6.53;3.00;;;;;;;;;;5096648;28;20455;-57
2021/07/06 09:10:00;;;;;;;5.70;2.43;;;;;;;;;;5096411;28;20459;-54
2021/07/06 09:12:34;;;;;;;4.77;3.20;;;;;;;;;;5112218;28;20490;-55
2021/07/06 09:15:18;;;;;;;6.87;2.63;;;;;;;;;;5116358;28;20542;-56
2021/07/06 09:18:20;;;;;;;4.27;1.97;;;;;;;;;;5115942;28;20469;-56
2021/07/06 09:21:23;;;;;;;6.87;2.47;;;;;;;;;;5114569;28;20478;-58
2021/07/06 09:24:14;;;;;;;5.10;2.53;;;;;;;;;;5115695;28;20460;-57
2021/07/06 09:26:41;;;;;;;7.40;2.80;;;;;;;;;;5116438;28;20451;-56
2021/07/06 09:29:08;;;;;;;5.47;2.37;;;;;;;;;;5116493;28;20477;-57
2021/07/06 09:31:44;;;;;;;3.27;2.47;;;;;;;;;;5116325;28;20459;-56
2021/07/06 09:34:15;;;;;;;3.50;1.50;;;;;;;;;;5097903;28;20488;-57
2021/07/06 09:37:06;;;;;;;5.47;2.10;;;;;;;;;;5107624;28;20468;-58
2021/07/06 09:39:39;;;;;;;6.20;2.00;;;;;;;;;;5095069;28;20508;-57
2021/07/06 09:42:08;;;;;;;4.10;2.70;;;;;;;;;;5102344;28;20455;-57
2021/07/06 09:44:43;;;;;;;2.60;1.70;;;;;;;;;;5115815;28;20463;-58
2021/07/06 09:47:13;;;;;;;4.90;3.33;;;;;;;;;;5115130;28;20487;-55
2021/07/06 09:49:42;;;;;;;3.90;2.40;;;;;;;;;;5116153;28;20515;-57
2021/07/06 09:52:11;;;;;;;4.00;2.87;;;;;;;;;;5115968;28;20447;-53
2021/07/06 09:54:41;;;;;;;3.83;1.77;;;;;;;;;;5116223;28;20458;-56
2021/07/06 09:57:26;;;;;;;6.03;1.60;;;;;;;;;;5116084;28;20458;-57
2021/07/06 10:00:06;;;;;;;3.13;2.00;;;;;;;;;;5115212;28;20487;-56
2021/07/06 10:02:49;;;;;;;3.47;1.60;;;;;;;;;;5115877;28;20455;-56
2021/07/06 10:05:24;;;;;;;3.13;1.50;;;;;;;;;;5115485;28;20501;-56
2021/07/06 10:07:51;;;;;;;2.70;1.33;;;;;;;;;;5116905;28;20932;-57
2021/07/06 10:13:26;;;;;;;4.10;1.80;;;;;;;;;;5115107;28;20788;-57
2021/07/06 10:16:30;;;;;;;3.33;1.60;;;;;;;;;;5116428;28;20521;-56
2021/07/06 10:19:18;;;;;;;3.10;1.83;;;;;;;;;;5120225;28;20506;-58
2021/07/06 10:21:47;;;;;;;3.17;1.73;;;;;;;;;;5108246;28;20484;-57
2021/07/06 10:24:24;;;;;;;4.83;2.93;;;;;;;;;;5112401;28;20451;-58
2021/07/06 10:26:57;;;;;;;4.10;2.60;;;;;;;;;;5096105;28;20527;-56
2021/07/06 10:29:32;;;;;;;3.03;1.80;;;;;;;;;;5092910;28;20456;-55
2021/07/06 10:32:09;;;;;;;4.87;2.90;;;;;;;;;;5092601;28;20439;-59
2021/07/06 10:34:49;;;;;;;3.40;1.70;;;;;;;;;;5113149;28;20449;-57
2021/07/06 10:37:29;;;;;;;8.33;2.47;;;;;;;;;;5110161;28;20518;-58
2021/07/06 10:40:22;;;;;;;2.93;1.37;;;;;;;;;;5112821;28;20472;-58
2021/07/06 10:42:50;;;;;;;2.73;1.50;;;;;;;;;;5072240;28;20764;-58
2021/07/06 10:45:25;;;;;;;3.53;1.20;;;;;;;;;;5096522;28;20488;-58
2021/07/06 10:47:53;;;;;;;2.80;1.57;;;;;;;;;;5113135;28;20455;-55
2021/07/06 10:50:26;;;;;;;3.03;1.00;;;;;;;;;;5112613;28;20455;-55
2021/07/06 10:53:19;;;;;;;2.73;1.13;;;;;;;;;;5112210;28;20931;-57
2021/07/06 10:55:59;;;;;;;3.17;0.90;;;;;;;;;;5100902;28;20490;-58
2021/07/06 10:58:46;;;;;;;7.03;0.90;;;;;;;;;;5095295;28;20447;-57
2021/07/06 11:01:36;;;;;;;3.67;1.50;;;;;;;;;;5109060;28;20929;-57
2021/07/06 11:04:09;;;;;;;2.70;1.43;;;;;;;;;;5092327;28;20448;-53
2021/07/06 11:06:59;;;;;;;3.40;1.20;;;;;;;;;;5097855;28;20465;-54
2021/07/06 11:09:51;;;;;;;3.37;1.10;;;;;;;;;;5112501;28;20512;-55
2021/07/06 11:12:21;;;;;;;2.50;1.13;;;;;;;;;;5090914;28;20453;-57
2021/07/06 11:14:53;;;;;;;7.00;1.43;;;;;;;;;;5091836;28;20537;-58
2021/07/06 11:17:42;;;;;;;9.10;1.60;;;;;;;;;;5097470;28;20486;-57
2021/07/06 11:20:33;;;;;;;3.73;1.27;;;;;;;;;;5099430;28;20507;-56
2021/07/06 11:23:04;;;;;;;2.40;1.17;;;;;;;;;;5099172;28;20470;-58
2021/07/06 11:25:40;;;;;;;5.30;2.23;;;;;;;;;;5091762;28;20453;-58
2021/07/06 11:28:10;;;;;;;9.00;1.63;;;;;;;;;;5091576;28;20472;-54
2021/07/06 11:30:41;;;;;;;4.30;1.50;;;;;;;;;;5107395;28;20454;-57
2021/07/06 11:33:13;;;;;;;6.30;1.27;;;;;;;;;;5133002;28;20481;-57
2021/07/06 11:35:42;;;;;;;6.60;1.73;;;;;;;;;;5113215;28;20469;-55
2021/07/06 11:38:16;;;;;;;3.87;1.40;;;;;;;;;;5102202;28;20528;-57
2021/07/06 11:40:45;;;;;;;2.30;1.07;;;;;;;;;;5113969;28;20506;-57
2021/07/06 11:46:16;;;;;;;2.10;0.90;;;;;;;;;;5109050;28;20564;-55
2021/07/06 11:48:48;;;;;;;1.80;0.70;;;;;;;;;;5112039;28;20520;-57
2021/07/06 11:51:18;;;;;;;5.70;1.73;;;;;;;;;;5110998;28;20494;-57
2021/07/06 11:53:54;;;;;;;4.70;1.37;;;;;;;;;;5111230;28;20463;-58
2021/07/06 11:56:24;;;;;;;3.07;1.37;;;;;;;;;;5110867;28;20453;-58
2021/07/06 11:59:08;;;;;;;3.37;1.20;;;;;;;;;;5110437;28;20455;-58
2021/07/06 12:01:37;;;;;;;4.07;1.50;;;;;;;;;;5106238;28;20551;-53
2021/07/06 12:04:04;;;;;;;2.37;1.17;;;;;;;;;;5110927;28;20469;-55
2021/07/06 12:06:32;;;;;;;4.63;1.33;;;;;;;;;;5109462;28;20468;-57
2021/07/06 12:09:08;;;;;;;3.87;1.20;;;;;;;;;;5103821;28;20520;-56
2021/07/06 12:11:59;;;;;;;7.40;4.63;;;;;;;;;;5107909;28;20496;-53
2021/07/06 12:14:28;;;;;;;5.93;1.53;;;;;;;;;;5091242;28;20780;-57
2021/07/06 12:16:59;;;;;;;3.17;1.30;;;;;;;;;;5091695;28;20743;-57
2021/07/06 12:19:28;;;;;;;4.37;1.60;;;;;;;;;;5073304;28;20487;-59
2021/07/06 12:22:03;;;;;;;4.23;1.43;;;;;;;;;;5094112;28;20494;-58
2021/07/06 12:24:33;;;;;;;3.60;1.30;;;;;;;;;;5097444;28;20501;-53
2021/07/06 12:27:01;;;;;;;4.87;1.20;;;;;;;;;;5112380;28;20559;-57
2021/07/06 12:29:29;;;;;;;9.27;2.30;;;;;;;;;;5101449;28;20495;-57
2021/07/06 12:31:57;;;;;;;5.00;2.77;;;;;;;;;;5109245;28;20513;-57
2021/07/06 12:37:30;;;;;;;2.80;1.47;;;;;;;;;;5100020;28;20480;-54
2021/07/06 12:40:08;;;;;;;3.20;1.40;;;;;;;;;;5099589;28;20529;-58
2021/07/06 12:42:46;;;;;;;2.63;1.20;;;;;;;;;;5106421;28;20452;-55
2021/07/06 12:45:23;;;;;;;10.40;1.90;;;;;;;;;;5105603;28;20504;-57
2021/07/06 12:48:01;;;;;;;4.20;1.50;;;;;;;;;;5099865;28;20458;-60
2021/07/06 12:50:33;;;;;;;4.97;1.63;;;;;;;;;;5107023;28;20460;-55
2021/07/06 12:53:13;;;;;;;3.83;1.70;;;;;;;;;;5106076;28;20479;-54
2021/07/06 12:55:48;;;;;;;2.87;1.40;;;;;;;;;;5103140;28;20490;-57
2021/07/06 12:58:18;;;;;;;2.50;1.10;;;;;;;;;;5106991;28;20463;-58
2021/07/06 13:00:52;;;;;;;6.50;1.43;;;;;;;;;;5111082;28;20487;-58
2021/07/06 13:03:20;;;;;;;3.60;1.10;;;;;;;;;;5107681;28;20519;-56
2021/07/06 13:05:50;;;;;;;4.03;0.90;;;;;;;;;;5100496;28;20459;-58
2021/07/06 13:11:03;;;;;;;3.00;0.93;;;;;;;;;;5077613;28;20484;-58
2021/07/06 13:13:36;;;;;;;4.87;1.20;;;;;;;;;;5071393;28;20457;-58
2021/07/06 13:16:04;;;;;;;6.63;4.83;;;;;;;;;;5091352;28;20622;-58
2021/07/06 13:19:03;;;;;;;2.93;1.20;;;;;;;;;;5096041;28;20455;-57
2021/07/06 13:21:34;;;;;;;4.13;1.20;;;;;;;;;;5071937;28;20488;-58
2021/07/06 13:24:05;;;;;;;2.60;0.70;;;;;;;;;;5074477;28;20461;-57
2021/07/06 13:26:42;;;;;;;7.07;1.13;;;;;;;;;;5074784;28;20442;-57
2021/07/06 13:32:05;;;;;;;4.03;1.20;;;;;;;;;;5082908;28;20443;-58
2021/07/06 13:34:33;;;;;;;2.30;1.03;;;;;;;;;;5093348;28;20456;-57
2021/07/06 13:37:03;;;;;;;5.43;1.37;;;;;;;;;;5081490;28;20527;-58
2021/07/06 13:39:31;;;;;;;9.67;4.57;;;;;;;;;;5095920;28;20455;-57
2021/07/06 13:42:00;;;;;;;4.13;1.27;;;;;;;;;;5106266;28;20492;-58
2021/07/06 13:44:33;;;;;;;3.23;1.40;;;;;;;;;;5085870;28;20438;-56
2021/07/06 13:47:00;;;;;;;5.07;1.43;;;;;;;;;;5073888;28;20507;-59
2021/07/06 13:49:30;;;;;;;3.67;1.40;;;;;;;;;;5101338;28;20506;-55
2021/07/06 13:51:59;;;;;;;7.00;2.60;;;;;;;;;;5084414;28;20521;-58
2021/07/06 13:54:29;;;;;;;8.30;1.40;;;;;;;;;;5082394;28;20580;-57
2021/07/06 13:56:59;;;;;;;7.67;1.63;;;;;;;;;;5086493;28;20447;-56
2021/07/06 13:59:28;;;;;;;11.73;4.10;;;;;;;;;;5074870;28;21023;-55
2021/07/06 14:01:55;;;;;;;4.67;2.07;;;;;;;;;;5086042;28;20503;-55
2021/07/06 14:04:28;;;;;;;5.87;1.67;;;;;;;;;;5087925;28;20429;-55
2021/07/06 14:06:57;;;;;;;6.43;1.70;;;;;;;;;;5078078;28;20435;-59
2021/07/06 14:09:32;;;;;;;4.00;1.47;;;;;;;;;;5081631;28;20464;-55
2021/07/06 14:11:59;;;;;;;7.53;1.37;;;;;;;;;;5072729;28;20472;-58
2021/07/06 14:14:28;;;;;;;6.70;1.30;;;;;;;;;;5071595;28;20459;-57
2021/07/06 14:17:13;;;;;;;4.00;1.60;;;;;;;;;;5073084;28;20491;-59
2021/07/06 14:19:41;;;;;;;3.73;1.67;;;;;;;;;;5083133;28;20523;-59
2021/07/06 14:22:09;;;;;;;3.30;1.93;;;;;;;;;;5076856;28;20466;-58
2021/07/06 14:24:55;;;;;;;4.57;1.70;;;;;;;;;;5073145;28;20465;-58
2021/07/06 14:27:27;;;;;;;2.30;0.90;;;;;;;;;;5082431;28;20476;-59
2021/07/06 14:29:59;;;;;;;3.60;1.30;;;;;;;;;;5085142;28;20449;-59
2021/07/06 14:35:31;;;;;;;4.50;1.30;;;;;;;;;;5087211;28;20526;-58
2021/07/06 14:38:01;;;;;;;4.93;1.80;;;;;;;;;;5083099;28;20452;-60
2021/07/06 14:40:29;;;;;;;4.53;1.17;;;;;;;;;;5077795;28;20457;-55
2021/07/06 14:43:15;;;;;;;4.33;2.30;;;;;;;;;;5085289;28;20468;-60
2021/07/06 14:46:02;;;;;;;5.97;2.70;;;;;;;;;;5090855;28;20458;-58
2021/07/06 14:48:30;;;;;;;5.70;1.30;;;;;;;;;;5098498;28;20503;-59
2021/07/06 14:50:57;;;;;;;5.13;1.60;;;;;;;;;;5091557;28;20594;-58
2021/07/06 14:53:25;;;;;;;5.03;1.77;;;;;;;;;;5098168;28;20602;-56
2021/07/06 14:55:53;;;;;;;4.50;3.00;;;;;;;;;;5109183;28;20455;-57
2021/07/06 14:58:20;;;;;;;5.63;3.17;;;;;;;;;;5098729;28;20452;-59
2021/07/06 15:00:56;;;;;;;8.73;5.60;;;;;;;;;;5088606;28;20460;-57
2021/07/06 15:03:25;;;;;;;6.73;1.50;;;;;;;;;;5089274;28;20483;-58
2021/07/06 15:05:52;;;;;;;4.23;2.00;;;;;;;;;;5068826;28;20612;-57
2021/07/06 15:08:21;;;;;;;6.30;2.27;;;;;;;;;;5068945;28;20471;-57
2021/07/06 15:10:50;;;;;;;4.23;1.30;;;;;;;;;;5076746;28;20467;-59
2021/07/06 15:13:26;;;;;;;5.37;2.60;;;;;;;;;;5069998;28;20502;-57
2021/07/06 15:15:57;;;;;;;12.70;8.80;;;;;;;;;;5072649;28;20439;-59
2021/07/06 15:18:26;;;;;;;4.63;2.13;;;;;;;;;;5075281;28;20469;-58
2021/07/06 15:20:59;;;;;;;5.37;1.67;;;;;;;;;;5082096;28;20477;-59
2021/07/06 15:23:26;;;;;;;5.83;1.90;;;;;;;;;;5100848;28;20501;-60
2021/07/06 15:26:00;;;;;;;7.00;3.10;;;;;;;;;;5086864;28;20466;-59
2021/07/06 15:28:40;;;;;;;9.67;1.83;;;;;;;;;;5101547;28;20456;-58
2021/07/06 15:34:22;;;;;;;7.87;3.50;;;;;;;;;;5073706;28;20468;-57
2021/07/06 15:37:14;;;;;;;9.10;2.57;;;;;;;;;;5062466;28;20451;-58
2021/07/06 15:40:15;;;;;;;10.10;5.17;;;;;;;;;;5070369;28;20445;-59
2021/07/06 15:42:47;;;;;;;5.27;2.57;;;;;;;;;;5084142;28;20508;-58